createdAt,value
2023-03-10T00:01:20.609Z,18.10
2023-03-10T00:03:56.489Z,18.10
2023-03-10T00:06:36.262Z,18.00
2023-03-10T00:09:14.248Z,18.00
2023-03-10T00:11:52.550Z,18.10
2023-03-10T00:14:28.484Z,18.10
2023-03-10T00:17:04.165Z,18.10
2023-03-10T00:19:40.406Z,18.30
2023-03-10T00:22:16.749Z,18.30
2023-03-10T00:24:56.358Z,18.30
2023-03-10T00:27:35.275Z,18.30
2023-03-10T00:30:12.630Z,18.30
2023-03-10T00:32:49.193Z,18.30
2023-03-10T00:35:25.624Z,18.30
2023-03-10T00:38:05.544Z,18.40
2023-03-10T00:40:42.827Z,18.40
2023-03-10T00:43:25.559Z,18.50
2023-03-10T00:46:02.563Z,18.60
2023-03-10T00:48:38.853Z,18.50
2023-03-10T00:51:15.828Z,18.60
2023-03-10T00:54:00.102Z,18.60
2023-03-10T00:56:35.942Z,18.60
2023-03-10T00:59:16.933Z,18.80
2023-03-10T01:01:58.381Z,18.80
2023-03-10T01:04:34.321Z,18.90
2023-03-10T01:07:10.767Z,19.10
2023-03-10T01:09:47.106Z,19.10
2023-03-10T01:12:24.959Z,19.20
2023-03-10T01:15:03.671Z,19.40
2023-03-10T01:17:40.077Z,19.50
2023-03-10T01:20:18.540Z,19.50
2023-03-10T01:22:56.291Z,19.70
2023-03-10T01:25:38.373Z,19.70
2023-03-10T01:28:15.620Z,20.00
2023-03-10T01:30:55.013Z,20.40
2023-03-10T01:33:34.950Z,20.80
2023-03-10T01:36:15.393Z,21.10
2023-03-10T01:38:55.426Z,21.30
2023-03-10T01:41:33.394Z,21.50
2023-03-10T01:44:09.389Z,21.70
2023-03-10T01:46:53.424Z,22.00
2023-03-10T01:49:49.766Z,22.60
2023-03-10T01:52:28.437Z,22.90
2023-03-10T01:55:11.615Z,23.10
2023-03-10T01:57:50.039Z,23.20
2023-03-10T02:00:27.912Z,22.90
2023-03-10T02:03:17.404Z,22.90
2023-03-10T02:06:01.739Z,23.20
2023-03-10T02:08:50.857Z,23.30
2023-03-10T02:11:30.854Z,23.30
2023-03-10T02:14:15.441Z,23.40
2023-03-10T02:16:58.637Z,23.20
2023-03-10T02:19:47.532Z,22.90
2023-03-10T02:22:23.968Z,22.90
2023-03-10T02:25:05.340Z,22.90
2023-03-10T02:27:49.281Z,22.80
2023-03-10T02:30:29.417Z,23.10
2023-03-10T02:33:09.127Z,23.00
2023-03-10T02:35:45.508Z,22.90
2023-03-10T02:38:26.485Z,23.30
2023-03-10T02:41:03.375Z,23.70
2023-03-10T02:43:52.005Z,24.00
2023-03-10T02:46:33.836Z,24.70
2023-03-10T02:49:12.774Z,24.60
2023-03-10T02:51:57.110Z,23.60
2023-03-10T02:54:33.580Z,24.20
2023-03-10T02:57:13.638Z,24.60
2023-03-10T02:59:52.325Z,24.90
2023-03-10T03:02:34.609Z,23.90
2023-03-10T03:05:12.384Z,24.70
2023-03-10T03:07:53.676Z,25.50
2023-03-10T03:10:34.129Z,25.60
2023-03-10T03:13:11.413Z,25.20
2023-03-10T03:15:52.980Z,25.70
2023-03-10T03:18:32.350Z,25.80
2023-03-10T03:21:12.251Z,26.20
2023-03-10T03:23:50.857Z,26.20
2023-03-10T03:26:31.236Z,26.20
2023-03-10T03:29:15.244Z,26.40
2023-03-10T03:31:55.480Z,26.40
2023-03-10T03:34:38.549Z,25.90
2023-03-10T03:37:17.497Z,25.70
2023-03-10T03:39:53.761Z,25.30
2023-03-10T03:42:32.012Z,25.60
2023-03-10T03:45:09.122Z,24.50
2023-03-10T03:47:49.964Z,24.70
2023-03-10T03:50:27.080Z,24.40
2023-03-10T03:53:07.249Z,24.70
2023-03-10T03:55:47.195Z,24.70
2023-03-10T03:58:24.578Z,25.10
2023-03-10T04:01:08.559Z,25.50
2023-03-10T04:03:53.280Z,25.50
2023-03-10T04:06:32.917Z,25.30
2023-03-10T04:09:11.845Z,25.40
2023-03-10T04:11:49.506Z,24.80
2023-03-10T04:14:26.700Z,24.50
2023-03-10T04:17:04.947Z,24.60
2023-03-10T04:19:57.211Z,24.90
2023-03-10T04:23:02.654Z,25.00
2023-03-10T04:26:16.192Z,25.00
2023-03-10T04:30:09.056Z,24.20
2023-03-10T04:33:20.102Z,23.70
2023-03-10T04:36:14.240Z,23.30
2023-03-10T04:38:55.253Z,23.20
2023-03-10T04:41:40.150Z,23.70
2023-03-10T04:44:30.479Z,23.30
2023-03-10T04:47:18.936Z,23.50
2023-03-10T04:49:58.722Z,23.20
2023-03-10T04:52:43.097Z,23.20
2023-03-10T04:55:20.597Z,23.20
2023-03-10T04:58:02.770Z,23.00
2023-03-10T05:00:53.094Z,22.90
2023-03-10T05:03:43.509Z,22.70
2023-03-10T05:06:24.081Z,23.10
2023-03-10T05:09:23.444Z,23.30
2023-03-10T05:12:00.879Z,23.40
2023-03-10T05:14:45.101Z,23.40
2023-03-10T05:17:22.362Z,23.40
2023-03-10T05:20:04.166Z,23.30
2023-03-10T05:22:42.676Z,23.20
2023-03-10T05:25:25.549Z,23.50
2023-03-10T05:28:04.579Z,23.50
2023-03-10T05:30:44.280Z,23.50
2023-03-10T05:33:20.639Z,23.30
2023-03-10T05:36:03.442Z,23.30
2023-03-10T05:38:48.483Z,23.20
2023-03-10T05:41:30.460Z,22.90
2023-03-10T05:44:09.526Z,22.80
2023-03-10T05:46:49.356Z,22.90
2023-03-10T05:49:27.695Z,22.50
2023-03-10T05:52:06.941Z,22.60
2023-03-10T05:54:44.068Z,22.90
2023-03-10T05:57:27.506Z,22.90
2023-03-10T06:00:12.280Z,22.60
2023-03-10T06:03:04.816Z,22.80
2023-03-10T06:05:42.968Z,22.90
2023-03-10T06:08:19.192Z,22.70
2023-03-10T06:10:57.209Z,22.20
2023-03-10T06:13:43.008Z,22.60
2023-03-10T06:16:22.239Z,22.80
2023-03-10T06:19:02.567Z,22.80
2023-03-10T06:21:41.116Z,22.80
2023-03-10T06:24:22.039Z,22.80
2023-03-10T06:26:58.672Z,22.90
2023-03-10T06:29:37.396Z,22.90
2023-03-10T06:32:17.332Z,22.90
2023-03-10T06:34:56.301Z,23.10
2023-03-10T06:37:32.101Z,23.00
2023-03-10T06:40:09.798Z,22.80
2023-03-10T06:42:45.860Z,22.80
2023-03-10T06:45:24.813Z,22.80
2023-03-10T06:48:01.561Z,22.90
2023-03-10T06:50:47.379Z,22.90
2023-03-10T06:53:24.233Z,22.80
2023-03-10T06:56:07.305Z,22.80
2023-03-10T06:58:43.219Z,22.60
2023-03-10T07:01:32.544Z,22.60
2023-03-10T07:04:09.972Z,22.80
2023-03-10T07:06:46.280Z,22.90
2023-03-10T07:09:22.597Z,23.20
2023-03-10T07:12:06.852Z,23.10
2023-03-10T07:14:44.236Z,23.10
2023-03-10T07:17:22.935Z,23.10
2023-03-10T07:19:58.649Z,23.20
2023-03-10T07:22:36.287Z,22.80
2023-03-10T07:25:12.938Z,22.50
2023-03-10T07:27:48.825Z,22.70
2023-03-10T07:30:25.352Z,22.60
2023-03-10T07:33:21.254Z,22.70
2023-03-10T07:36:04.504Z,22.60
2023-03-10T07:39:12.465Z,22.60
2023-03-10T07:41:52.869Z,22.50
2023-03-10T07:44:29.101Z,22.60
2023-03-10T07:47:04.838Z,22.60
2023-03-10T07:49:48.169Z,22.70
2023-03-10T07:52:56.455Z,22.80
2023-03-10T07:55:32.475Z,22.90
2023-03-10T07:58:08.712Z,23.00
2023-03-10T08:00:45.409Z,22.50
2023-03-10T08:03:21.596Z,22.40
2023-03-10T08:06:01.208Z,22.50
2023-03-10T08:08:36.916Z,22.60
2023-03-10T08:11:14.022Z,22.40
2023-03-10T08:13:51.817Z,22.60
2023-03-10T08:16:28.524Z,22.20
2023-03-10T08:19:04.951Z,22.00
2023-03-10T08:21:43.658Z,22.20
2023-03-10T08:24:20.100Z,22.40
2023-03-10T08:26:56.517Z,22.70
2023-03-10T08:29:35.398Z,22.60
2023-03-10T08:32:14.093Z,22.70
2023-03-10T08:34:52.070Z,23.00
2023-03-10T08:37:30.211Z,23.00
2023-03-10T08:40:13.657Z,22.60
2023-03-10T08:42:50.190Z,22.70
2023-03-10T08:45:27.126Z,22.90
2023-03-10T08:48:03.675Z,23.00
2023-03-10T08:50:39.200Z,22.80
2023-03-10T08:53:18.865Z,22.70
2023-03-10T08:55:54.479Z,22.80
2023-03-10T08:58:30.451Z,22.90
2023-03-10T09:01:06.518Z,22.70
2023-03-10T09:03:43.665Z,22.90
2023-03-10T09:06:17.920Z,22.60
2023-03-10T09:08:56.523Z,22.60
2023-03-10T09:11:38.420Z,22.70
2023-03-10T09:14:19.528Z,22.70
2023-03-10T09:16:56.407Z,22.60
2023-03-10T09:20:00.108Z,22.70
2023-03-10T09:22:36.399Z,22.60
2023-03-10T09:25:19.102Z,22.90
2023-03-10T09:27:56.626Z,23.20
2023-03-10T09:30:33.282Z,23.10
2023-03-10T09:33:12.309Z,23.00
2023-03-10T09:36:05.079Z,23.00
2023-03-10T09:38:43.443Z,22.70
2023-03-10T09:41:55.044Z,22.40
2023-03-10T09:44:39.988Z,22.40
2023-03-10T09:47:30.505Z,22.50
2023-03-10T09:50:21.356Z,22.60
2023-03-10T09:53:08.833Z,22.50
2023-03-10T09:55:49.034Z,22.50
2023-03-10T09:58:40.224Z,22.50
2023-03-10T10:01:26.463Z,22.30
2023-03-10T10:04:10.655Z,22.30
2023-03-10T10:06:49.417Z,22.20
2023-03-10T10:09:36.653Z,22.10
2023-03-10T10:12:18.883Z,22.00
2023-03-10T10:15:02.822Z,21.80
2023-03-10T10:17:58.346Z,21.60
2023-03-10T10:20:40.893Z,21.30
2023-03-10T10:23:29.681Z,21.20
2023-03-10T10:26:17.421Z,21.30
2023-03-10T10:29:06.058Z,21.40
2023-03-10T10:32:12.174Z,21.30
2023-03-10T10:34:52.567Z,21.30
2023-03-10T10:37:41.550Z,21.30
2023-03-10T10:40:35.111Z,21.20
2023-03-10T10:43:26.796Z,21.20
2023-03-10T10:46:10.992Z,21.30
2023-03-10T10:48:55.671Z,21.30
2023-03-10T10:51:38.197Z,21.20
2023-03-10T10:54:32.523Z,21.10
2023-03-10T10:57:13.202Z,21.10
2023-03-10T10:59:51.166Z,21.10
2023-03-10T11:02:41.668Z,21.10
2023-03-10T11:05:28.830Z,21.10
2023-03-10T11:08:25.204Z,21.00
2023-03-10T11:11:06.349Z,20.90
2023-03-10T11:13:55.220Z,20.80
2023-03-10T11:16:42.676Z,20.80
2023-03-10T11:19:35.094Z,20.80
2023-03-10T11:22:25.127Z,20.80
2023-03-10T11:25:08.903Z,20.70
2023-03-10T11:27:57.265Z,20.70
2023-03-10T11:30:45.743Z,20.60
2023-03-10T11:33:33.014Z,20.70
2023-03-10T11:36:25.515Z,20.70
2023-03-10T11:39:18.226Z,20.70
2023-03-10T11:42:01.834Z,20.60
2023-03-10T11:44:46.843Z,20.60
2023-03-10T11:47:33.271Z,20.50
2023-03-10T11:50:33.924Z,20.50
2023-03-10T11:53:16.661Z,20.40
2023-03-10T11:55:57.844Z,20.40
2023-03-10T11:58:45.931Z,20.60
2023-03-10T12:01:29.728Z,20.50
2023-03-10T12:04:15.048Z,20.50
2023-03-10T12:06:56.576Z,20.50
2023-03-10T12:09:44.645Z,20.40
2023-03-10T12:12:27.556Z,20.30
2023-03-10T12:15:06.736Z,20.50
2023-03-10T12:17:47.556Z,20.60
2023-03-10T12:20:39.347Z,20.50
2023-03-10T12:23:46.136Z,20.30
2023-03-10T12:26:46.876Z,20.20
2023-03-10T12:29:50.172Z,20.20
2023-03-10T12:32:52.127Z,20.20
2023-03-10T12:35:55.917Z,20.00
2023-03-10T12:38:55.954Z,20.20
2023-03-10T12:41:56.897Z,20.20
2023-03-10T12:44:53.403Z,20.20
2023-03-10T12:47:55.444Z,20.10
2023-03-10T12:50:46.450Z,20.10
2023-03-10T12:53:45.024Z,20.10
2023-03-10T12:56:44.918Z,20.30
2023-03-10T12:59:31.068Z,20.20
2023-03-10T13:02:27.865Z,20.10
2023-03-10T13:05:14.332Z,20.10
2023-03-10T13:08:01.189Z,20.20
2023-03-10T13:10:40.911Z,20.20
2023-03-10T13:13:27.524Z,20.30
2023-03-10T13:16:10.393Z,20.40
2023-03-10T13:18:57.532Z,20.40
2023-03-10T13:21:40.596Z,20.40
2023-03-10T13:24:33.971Z,20.30
2023-03-10T13:27:16.584Z,20.40
2023-03-10T13:30:08.287Z,20.30
2023-03-10T13:32:58.007Z,20.40
2023-03-10T13:35:43.906Z,20.30
2023-03-10T13:38:23.243Z,20.40
2023-03-10T13:41:08.738Z,20.30
2023-03-10T13:43:54.366Z,20.40
2023-03-10T13:46:33.499Z,20.30
2023-03-10T13:49:18.054Z,20.30
2023-03-10T13:52:05.045Z,20.30
2023-03-10T13:54:42.849Z,20.20
2023-03-10T13:57:31.558Z,20.10
2023-03-10T14:00:13.044Z,20.10
2023-03-10T14:02:53.849Z,20.10
2023-03-10T14:06:02.971Z,20.10
2023-03-10T14:08:45.710Z,20.00
2023-03-10T14:11:51.096Z,19.90
2023-03-10T14:14:52.032Z,20.00
2023-03-10T14:17:40.170Z,20.00
2023-03-10T14:20:39.584Z,19.80
2023-03-10T14:23:35.147Z,19.80
2023-03-10T14:26:21.515Z,19.90
2023-03-10T14:29:01.158Z,20.10
2023-03-10T14:31:38.919Z,20.10
2023-03-10T14:34:24.146Z,19.90
2023-03-10T14:37:01.719Z,19.90
2023-03-10T14:39:47.135Z,20.00
2023-03-10T14:42:47.207Z,20.10
2023-03-10T14:45:35.600Z,20.20
2023-03-10T14:48:26.701Z,20.30
2023-03-10T14:51:14.533Z,20.20
2023-03-10T14:53:58.057Z,20.00
2023-03-10T14:56:46.280Z,20.00
2023-03-10T14:59:31.819Z,20.00
2023-03-10T15:02:17.464Z,19.90
2023-03-10T15:04:54.092Z,20.00
2023-03-10T15:07:33.166Z,20.00
2023-03-10T15:10:15.877Z,19.80
2023-03-10T15:12:53.736Z,19.70
2023-03-10T15:15:46.245Z,19.50
2023-03-10T15:18:31.884Z,19.40
2023-03-10T15:21:12.273Z,19.30
2023-03-10T15:23:57.391Z,19.10
2023-03-10T15:26:41.568Z,19.10
2023-03-10T15:29:25.032Z,19.30
2023-03-10T15:32:11.204Z,19.40
2023-03-10T15:34:54.313Z,19.50
2023-03-10T15:37:31.079Z,19.40
2023-03-10T15:40:11.380Z,19.60
2023-03-10T15:42:55.948Z,19.60
2023-03-10T15:45:33.812Z,19.40
2023-03-10T15:48:19.188Z,19.50
2023-03-10T15:50:58.870Z,19.50
2023-03-10T15:53:35.809Z,19.40
2023-03-10T15:56:18.976Z,19.50
2023-03-10T15:58:58.509Z,19.50
2023-03-10T16:01:35.821Z,19.70
2023-03-10T16:04:26.549Z,19.70
2023-03-10T16:07:11.549Z,19.70
2023-03-10T16:09:50.197Z,19.70
2023-03-10T16:12:26.904Z,19.50
2023-03-10T16:15:06.406Z,19.50
2023-03-10T16:17:47.965Z,19.40
2023-03-10T16:20:33.218Z,19.20
2023-03-10T16:23:11.849Z,19.00
2023-03-10T16:25:48.517Z,18.80
2023-03-10T16:28:28.546Z,18.80
2023-03-10T16:31:08.001Z,18.90
2023-03-10T16:33:48.030Z,18.90
2023-03-10T16:36:38.772Z,18.90
2023-03-10T16:39:21.747Z,19.10
2023-03-10T16:42:02.886Z,19.10
2023-03-10T16:44:39.408Z,19.20
2023-03-10T16:47:17.991Z,19.10
2023-03-10T16:49:57.473Z,19.10
2023-03-10T16:52:57.070Z,19.10
2023-03-10T16:55:39.727Z,19.10
2023-03-10T16:58:19.292Z,19.10
2023-03-10T17:00:59.707Z,19.10
2023-03-10T17:03:40.975Z,19.10
2023-03-10T17:06:21.585Z,19.00
2023-03-10T17:09:09.408Z,19.00
2023-03-10T17:11:54.875Z,19.00
2023-03-10T17:14:35.017Z,19.00
2023-03-10T17:17:12.908Z,19.00
2023-03-10T17:19:50.298Z,18.90
2023-03-10T17:22:26.482Z,18.80
2023-03-10T17:25:11.062Z,18.80
2023-03-10T17:27:46.984Z,18.80
2023-03-10T17:30:26.288Z,18.70
2023-03-10T17:33:06.523Z,18.70
2023-03-10T17:35:58.885Z,18.70
2023-03-10T17:38:36.519Z,18.60
2023-03-10T17:41:15.863Z,18.70
2023-03-10T17:43:53.664Z,18.60
2023-03-10T17:46:35.339Z,18.60
2023-03-10T17:49:12.680Z,18.40
2023-03-10T17:51:49.593Z,18.20
2023-03-10T17:54:27.234Z,18.30
2023-03-10T17:57:05.338Z,18.40
2023-03-10T17:59:41.857Z,18.50
2023-03-10T18:02:22.125Z,18.50
2023-03-10T18:04:58.247Z,18.40
2023-03-10T18:07:38.711Z,18.30
2023-03-10T18:10:15.303Z,18.40
2023-03-10T18:12:54.011Z,18.50
2023-03-10T18:15:30.322Z,18.50
2023-03-10T18:18:05.850Z,18.50
2023-03-10T18:20:41.490Z,18.60
2023-03-10T18:23:19.080Z,18.50
2023-03-10T18:25:54.821Z,18.50
2023-03-10T18:28:32.631Z,18.50
2023-03-10T18:31:10.884Z,18.50
2023-03-10T18:33:47.437Z,18.40
2023-03-10T18:36:25.326Z,18.40
2023-03-10T18:39:03.988Z,18.40
2023-03-10T18:41:40.227Z,18.40
2023-03-10T18:44:17.845Z,18.40
2023-03-10T18:46:53.578Z,18.40
2023-03-10T18:49:29.244Z,18.40
2023-03-10T18:52:04.488Z,18.40
2023-03-10T18:54:40.263Z,18.40
2023-03-10T18:57:15.800Z,18.30
2023-03-10T18:59:54.049Z,18.30
2023-03-10T19:02:29.597Z,18.40
2023-03-10T19:05:06.695Z,18.30
2023-03-10T19:07:41.902Z,18.30
2023-03-10T19:10:20.106Z,18.20
2023-03-10T19:12:57.032Z,18.10
2023-03-10T19:15:35.038Z,18.10
2023-03-10T19:18:10.659Z,18.10
2023-03-10T19:20:47.886Z,18.20
2023-03-10T19:23:22.804Z,18.30
2023-03-10T19:25:58.017Z,18.30
2023-03-10T19:28:34.018Z,18.20
2023-03-10T19:31:14.569Z,18.20
2023-03-10T19:33:49.984Z,18.10
2023-03-10T19:36:28.342Z,18.10
2023-03-10T19:39:03.561Z,18.20
2023-03-10T19:41:39.030Z,18.20
2023-03-10T19:44:14.186Z,18.10
2023-03-10T19:46:51.264Z,18.20
2023-03-10T19:49:25.781Z,18.10
2023-03-10T19:52:00.681Z,18.10
2023-03-10T19:54:35.482Z,18.10
2023-03-10T19:57:14.372Z,18.10
2023-03-10T19:59:48.791Z,18.00
2023-03-10T20:02:26.256Z,18.00
2023-03-10T20:05:00.714Z,17.90
2023-03-10T20:07:34.193Z,17.90
2023-03-10T20:10:09.766Z,17.80
2023-03-10T20:12:44.109Z,17.80
2023-03-10T20:15:19.855Z,17.70
2023-03-10T20:17:56.954Z,17.70
2023-03-10T20:20:30.938Z,17.70
2023-03-10T20:23:04.587Z,17.70
2023-03-10T20:25:38.784Z,17.70
2023-03-10T20:28:13.810Z,17.70
2023-03-10T20:30:48.026Z,17.80
2023-03-10T20:33:23.424Z,17.80
2023-03-10T20:35:57.071Z,17.80
2023-03-10T20:38:30.642Z,17.70
2023-03-10T20:41:03.953Z,17.70
2023-03-10T20:43:38.594Z,17.70
2023-03-10T20:46:12.599Z,17.70
2023-03-10T20:48:48.860Z,17.60
2023-03-10T20:51:23.821Z,17.50
2023-03-10T20:53:58.259Z,17.60
2023-03-10T20:56:31.535Z,17.50
2023-03-10T20:59:06.127Z,17.50
2023-03-10T21:01:40.944Z,17.60
2023-03-10T21:04:17.075Z,17.50
2023-03-10T21:06:51.627Z,17.60
2023-03-10T21:09:25.684Z,17.60
2023-03-10T21:11:59.661Z,17.70
2023-03-10T21:14:33.716Z,17.60
2023-03-10T21:17:07.080Z,17.50
2023-03-10T21:19:45.247Z,17.70
2023-03-10T21:22:19.409Z,17.60
2023-03-10T21:24:54.538Z,17.60
2023-03-10T21:27:30.247Z,17.60
2023-03-10T21:30:06.161Z,17.50
2023-03-10T21:32:41.324Z,17.50
2023-03-10T21:35:17.454Z,17.50
2023-03-10T21:37:51.977Z,17.50
2023-03-10T21:40:26.595Z,17.50
2023-03-10T21:43:02.526Z,17.40
2023-03-10T21:45:38.972Z,17.40
2023-03-10T21:48:13.550Z,17.50
2023-03-10T21:50:50.107Z,17.50
2023-03-10T21:53:28.115Z,17.50
2023-03-10T21:56:02.166Z,17.50
2023-03-10T21:58:36.272Z,17.50
2023-03-10T22:01:12.149Z,17.50
2023-03-10T22:03:47.031Z,17.50
2023-03-10T22:06:23.635Z,17.50
2023-03-10T22:08:57.863Z,17.60
2023-03-10T22:11:33.931Z,17.80
2023-03-10T22:14:09.377Z,17.80
2023-03-10T22:16:43.389Z,17.90
2023-03-10T22:19:18.248Z,17.90
2023-03-10T22:21:55.326Z,18.00
2023-03-10T22:24:30.232Z,18.00
2023-03-10T22:27:05.432Z,17.90
2023-03-10T22:29:40.940Z,17.90
2023-03-10T22:32:16.858Z,17.90
2023-03-10T22:34:52.691Z,17.90
2023-03-10T22:37:30.132Z,17.90
2023-03-10T22:40:06.443Z,17.90
2023-03-10T22:42:42.872Z,17.90
2023-03-10T22:45:22.740Z,17.90
2023-03-10T22:47:59.004Z,17.90
2023-03-10T22:50:36.418Z,17.90
2023-03-10T22:53:19.206Z,17.90
2023-03-10T22:55:55.865Z,17.80
2023-03-10T22:58:31.129Z,17.80
2023-03-10T23:01:07.064Z,17.70
2023-03-10T23:03:43.005Z,17.70
2023-03-10T23:06:18.694Z,17.80
2023-03-10T23:08:56.446Z,17.70
2023-03-10T23:11:31.920Z,17.60
2023-03-10T23:14:07.781Z,17.50
2023-03-10T23:16:44.111Z,17.30
2023-03-10T23:19:20.549Z,17.10
2023-03-10T23:21:56.490Z,17.20
2023-03-10T23:24:34.151Z,17.30
2023-03-10T23:27:13.358Z,17.40
2023-03-10T23:29:48.257Z,17.30
2023-03-10T23:32:24.801Z,17.20
2023-03-10T23:35:00.830Z,17.30
2023-03-10T23:37:36.979Z,17.50
2023-03-10T23:40:18.456Z,17.50
2023-03-10T23:42:54.795Z,17.50
2023-03-10T23:45:33.124Z,17.50
2023-03-10T23:48:10.464Z,17.70
2023-03-10T23:50:48.047Z,17.60
2023-03-10T23:53:25.053Z,17.70
2023-03-10T23:56:02.889Z,17.70
2023-03-10T23:58:38.401Z,17.60
